sensor_id;sensor_type;location;lat;lon;timestamp;P1;durP1;ratioP1;P2;durP2;ratioP2
8094;SDS011;4090;49.270;8.696;2022-09-04T00:02:07;6.82;;;4.82;;
8094;SDS011;4090;49.270;8.696;2022-09-04T00:05:03;5.63;;;4.45;;
8094;SDS011;4090;49.270;8.696;2022-09-04T00:07:55;6.43;;;4.47;;
8094;SDS011;4090;49.270;8.696;2022-09-04T00:10:46;5.65;;;4.40;;
8094;SDS011;4090;49.270;8.696;2022-09-04T00:13:34;6.93;;;4.20;;
8094;SDS011;4090;49.270;8.696;2022-09-04T00:16:20;8.20;;;4.50;;
8094;SDS011;4090;49.270;8.696;2022-09-04T00:19:08;8.30;;;4.55;;
8094;SDS011;4090;49.270;8.696;2022-09-04T00:21:58;7.88;;;4.53;;
8094;SDS011;4090;49.270;8.696;2022-09-04T00:24:42;7.82;;;4.63;;
8094;SDS011;4090;49.270;8.696;2022-09-04T00:27:31;6.15;;;4.20;;
8094;SDS011;4090;49.270;8.696;2022-09-04T00:30:22;5.68;;;4.35;;
8094;SDS011;4090;49.270;8.696;2022-09-04T00:33:05;4.85;;;4.10;;
8094;SDS011;4090;49.270;8.696;2022-09-04T00:35:52;5.65;;;4.45;;
8094;SDS011;4090;49.270;8.696;2022-09-04T00:38:41;6.43;;;4.65;;
8094;SDS011;4090;49.270;8.696;2022-09-04T00:41:27;6.38;;;4.40;;
8094;SDS011;4090;49.270;8.696;2022-09-04T00:50:58;7.28;;;5.22;;
8094;SDS011;4090;49.270;8.696;2022-09-04T00:53:54;6.18;;;4.60;;
8094;SDS011;4090;49.270;8.696;2022-09-04T01:00:10;5.13;;;4.63;;
8094;SDS011;4090;49.270;8.696;2022-09-04T01:06:06;6.82;;;4.50;;
8094;SDS011;4090;49.270;8.696;2022-09-04T01:09:10;6.20;;;4.50;;
8094;SDS011;4090;49.270;8.696;2022-09-04T01:12:10;5.90;;;4.55;;
8094;SDS011;4090;49.270;8.696;2022-09-04T01:15:05;6.85;;;4.43;;
8094;SDS011;4090;49.270;8.696;2022-09-04T01:17:57;9.30;;;4.50;;
8094;SDS011;4090;49.270;8.696;2022-09-04T01:24:18;7.28;;;4.63;;
8094;SDS011;4090;49.270;8.696;2022-09-04T01:27:15;8.88;;;5.68;;
8094;SDS011;4090;49.270;8.696;2022-09-04T01:30:05;8.68;;;5.80;;
8094;SDS011;4090;49.270;8.696;2022-09-04T01:32:54;8.40;;;5.35;;
8094;SDS011;4090;49.270;8.696;2022-09-04T01:35:47;7.78;;;5.72;;
8094;SDS011;4090;49.270;8.696;2022-09-04T01:38:35;9.43;;;6.07;;
8094;SDS011;4090;49.270;8.696;2022-09-04T01:41:23;9.65;;;5.85;;
8094;SDS011;4090;49.270;8.696;2022-09-04T01:44:11;7.80;;;6.18;;
8094;SDS011;4090;49.270;8.696;2022-09-04T01:46:56;11.73;;;7.68;;
8094;SDS011;4090;49.270;8.696;2022-09-04T01:49:44;9.02;;;6.60;;
8094;SDS011;4090;49.270;8.696;2022-09-04T01:52:34;9.65;;;6.53;;
8094;SDS011;4090;49.270;8.696;2022-09-04T01:55:22;8.57;;;6.28;;
8094;SDS011;4090;49.270;8.696;2022-09-04T01:58:10;9.75;;;6.38;;
8094;SDS011;4090;49.270;8.696;2022-09-04T02:01:02;7.82;;;5.90;;
8094;SDS011;4090;49.270;8.696;2022-09-04T02:03:55;10.15;;;6.50;;
8094;SDS011;4090;49.270;8.696;2022-09-04T02:06:41;10.85;;;6.85;;
8094;SDS011;4090;49.270;8.696;2022-09-04T02:09:31;8.75;;;6.03;;
8094;SDS011;4090;49.270;8.696;2022-09-04T02:12:18;9.88;;;6.40;;
8094;SDS011;4090;49.270;8.696;2022-09-04T02:15:10;9.63;;;5.97;;
8094;SDS011;4090;49.270;8.696;2022-09-04T02:18:00;10.48;;;6.78;;
8094;SDS011;4090;49.270;8.696;2022-09-04T02:20:55;9.77;;;6.93;;
8094;SDS011;4090;49.270;8.696;2022-09-04T02:23:43;10.27;;;6.75;;
8094;SDS011;4090;49.270;8.696;2022-09-04T02:26:32;11.32;;;6.80;;
8094;SDS011;4090;49.270;8.696;2022-09-04T02:29:22;9.77;;;6.45;;
8094;SDS011;4090;49.270;8.696;2022-09-04T02:32:13;9.30;;;5.95;;
8094;SDS011;4090;49.270;8.696;2022-09-04T02:35:02;9.18;;;6.38;;
8094;SDS011;4090;49.270;8.696;2022-09-04T02:37:52;8.65;;;6.18;;
8094;SDS011;4090;49.270;8.696;2022-09-04T02:40:47;11.48;;;7.05;;
8094;SDS011;4090;49.270;8.696;2022-09-04T02:43:45;9.30;;;6.45;;
8094;SDS011;4090;49.270;8.696;2022-09-04T02:46:39;11.82;;;6.63;;
8094;SDS011;4090;49.270;8.696;2022-09-04T02:49:35;9.02;;;6.72;;
8094;SDS011;4090;49.270;8.696;2022-09-04T02:52:27;13.48;;;6.00;;
8094;SDS011;4090;49.270;8.696;2022-09-04T02:55:24;9.85;;;6.25;;
8094;SDS011;4090;49.270;8.696;2022-09-04T02:58:18;9.50;;;6.72;;
8094;SDS011;4090;49.270;8.696;2022-09-04T03:01:21;10.25;;;6.03;;
8094;SDS011;4090;49.270;8.696;2022-09-04T03:04:09;9.15;;;6.60;;
8094;SDS011;4090;49.270;8.696;2022-09-04T03:06:56;10.35;;;6.25;;
8094;SDS011;4090;49.270;8.696;2022-09-04T03:09:49;10.27;;;6.47;;
8094;SDS011;4090;49.270;8.696;2022-09-04T03:12:36;12.20;;;7.35;;
8094;SDS011;4090;49.270;8.696;2022-09-04T03:15:24;11.85;;;7.47;;
8094;SDS011;4090;49.270;8.696;2022-09-04T03:18:11;9.93;;;6.72;;
8094;SDS011;4090;49.270;8.696;2022-09-04T03:20:57;8.40;;;6.65;;
8094;SDS011;4090;49.270;8.696;2022-09-04T03:23:47;10.48;;;6.25;;
8094;SDS011;4090;49.270;8.696;2022-09-04T03:26:36;10.98;;;6.53;;
8094;SDS011;4090;49.270;8.696;2022-09-04T03:29:24;8.35;;;5.90;;
8094;SDS011;4090;49.270;8.696;2022-09-04T03:32:12;5.90;;;4.93;;
8094;SDS011;4090;49.270;8.696;2022-09-04T03:35:00;8.02;;;5.32;;
8094;SDS011;4090;49.270;8.696;2022-09-04T03:37:55;6.25;;;5.03;;
8094;SDS011;4090;49.270;8.696;2022-09-04T03:40:48;10.18;;;4.97;;
8094;SDS011;4090;49.270;8.696;2022-09-04T03:43:41;6.15;;;5.00;;
8094;SDS011;4090;49.270;8.696;2022-09-04T03:46:36;7.07;;;5.10;;
8094;SDS011;4090;49.270;8.696;2022-09-04T03:49:33;7.88;;;5.32;;
8094;SDS011;4090;49.270;8.696;2022-09-04T03:52:24;10.20;;;5.20;;
8094;SDS011;4090;49.270;8.696;2022-09-04T03:55:22;9.85;;;5.55;;
8094;SDS011;4090;49.270;8.696;2022-09-04T03:58:14;9.90;;;5.45;;
8094;SDS011;4090;49.270;8.696;2022-09-04T04:01:08;8.77;;;5.45;;
8094;SDS011;4090;49.270;8.696;2022-09-04T04:04:00;7.40;;;5.18;;
8094;SDS011;4090;49.270;8.696;2022-09-04T04:07:17;7.93;;;5.80;;
8094;SDS011;4090;49.270;8.696;2022-09-04T04:10:12;7.82;;;5.50;;
8094;SDS011;4090;49.270;8.696;2022-09-04T04:13:10;7.30;;;4.80;;
8094;SDS011;4090;49.270;8.696;2022-09-04T04:16:19;7.57;;;5.60;;
8094;SDS011;4090;49.270;8.696;2022-09-04T04:19:25;8.05;;;5.55;;
8094;SDS011;4090;49.270;8.696;2022-09-04T04:22:22;11.48;;;5.15;;
8094;SDS011;4090;49.270;8.696;2022-09-04T04:28:36;7.20;;;5.72;;
8094;SDS011;4090;49.270;8.696;2022-09-04T04:31:44;9.98;;;5.75;;
8094;SDS011;4090;49.270;8.696;2022-09-04T04:34:56;9.07;;;5.70;;
8094;SDS011;4090;49.270;8.696;2022-09-04T04:37:54;6.50;;;4.82;;
8094;SDS011;4090;49.270;8.696;2022-09-04T04:44:11;8.45;;;5.88;;
8094;SDS011;4090;49.270;8.696;2022-09-04T04:46:59;11.63;;;6.07;;
8094;SDS011;4090;49.270;8.696;2022-09-04T04:49:54;7.88;;;5.40;;
8094;SDS011;4090;49.270;8.696;2022-09-04T04:52:45;7.88;;;5.35;;
8094;SDS011;4090;49.270;8.696;2022-09-04T04:55:34;6.90;;;5.18;;
8094;SDS011;4090;49.270;8.696;2022-09-04T04:58:35;8.35;;;5.13;;
8094;SDS011;4090;49.270;8.696;2022-09-04T05:01:26;6.63;;;4.80;;
8094;SDS011;4090;49.270;8.696;2022-09-04T05:04:19;6.78;;;4.80;;
8094;SDS011;4090;49.270;8.696;2022-09-04T05:07:09;7.40;;;5.20;;
8094;SDS011;4090;49.270;8.696;2022-09-04T05:09:59;6.53;;;5.00;;
8094;SDS011;4090;49.270;8.696;2022-09-04T05:12:54;6.80;;;5.03;;
8094;SDS011;4090;49.270;8.696;2022-09-04T05:15:42;5.78;;;4.70;;
8094;SDS011;4090;49.270;8.696;2022-09-04T05:18:32;6.45;;;4.60;;
8094;SDS011;4090;49.270;8.696;2022-09-04T05:21:20;6.15;;;4.60;;
8094;SDS011;4090;49.270;8.696;2022-09-04T05:24:09;6.55;;;5.07;;
8094;SDS011;4090;49.270;8.696;2022-09-04T05:26:59;7.40;;;5.35;;
8094;SDS011;4090;49.270;8.696;2022-09-04T05:29:47;6.25;;;5.20;;
8094;SDS011;4090;49.270;8.696;2022-09-04T05:32:36;7.47;;;5.72;;
8094;SDS011;4090;49.270;8.696;2022-09-04T05:35:25;8.18;;;5.82;;
8094;SDS011;4090;49.270;8.696;2022-09-04T05:38:19;8.52;;;5.90;;
8094;SDS011;4090;49.270;8.696;2022-09-04T05:41:06;7.00;;;5.43;;
8094;SDS011;4090;49.270;8.696;2022-09-04T05:44:01;7.20;;;5.80;;
8094;SDS011;4090;49.270;8.696;2022-09-04T05:47:03;7.68;;;5.53;;
8094;SDS011;4090;49.270;8.696;2022-09-04T05:49:55;7.95;;;5.50;;
8094;SDS011;4090;49.270;8.696;2022-09-04T05:52:57;8.60;;;5.00;;
8094;SDS011;4090;49.270;8.696;2022-09-04T05:56:03;7.20;;;5.35;;
8094;SDS011;4090;49.270;8.696;2022-09-04T05:59:08;6.60;;;5.35;;
8094;SDS011;4090;49.270;8.696;2022-09-04T06:02:40;7.55;;;4.90;;
8094;SDS011;4090;49.270;8.696;2022-09-04T06:05:56;6.15;;;5.13;;
8094;SDS011;4090;49.270;8.696;2022-09-04T06:09:10;6.78;;;5.00;;
8094;SDS011;4090;49.270;8.696;2022-09-04T06:12:15;7.15;;;5.30;;
8094;SDS011;4090;49.270;8.696;2022-09-04T06:15:17;6.43;;;5.05;;
8094;SDS011;4090;49.270;8.696;2022-09-04T06:18:22;5.90;;;4.82;;
8094;SDS011;4090;49.270;8.696;2022-09-04T06:21:29;6.72;;;5.07;;
8094;SDS011;4090;49.270;8.696;2022-09-04T06:24:40;5.88;;;4.75;;
8094;SDS011;4090;49.270;8.696;2022-09-04T06:27:56;5.90;;;4.63;;
8094;SDS011;4090;49.270;8.696;2022-09-04T06:30:50;4.30;;;3.90;;
8094;SDS011;4090;49.270;8.696;2022-09-04T06:33:47;8.25;;;5.03;;
8094;SDS011;4090;49.270;8.696;2022-09-04T06:36:44;6.30;;;4.88;;
8094;SDS011;4090;49.270;8.696;2022-09-04T06:39:51;7.70;;;5.10;;
8094;SDS011;4090;49.270;8.696;2022-09-04T06:42:47;5.60;;;4.43;;
8094;SDS011;4090;49.270;8.696;2022-09-04T06:45:42;5.03;;;4.53;;
8094;SDS011;4090;49.270;8.696;2022-09-04T06:48:34;6.03;;;4.75;;
8094;SDS011;4090;49.270;8.696;2022-09-04T06:51:31;5.13;;;4.20;;
8094;SDS011;4090;49.270;8.696;2022-09-04T06:54:23;6.20;;;4.75;;
8094;SDS011;4090;49.270;8.696;2022-09-04T06:57:19;6.82;;;4.47;;
8094;SDS011;4090;49.270;8.696;2022-09-04T07:00:14;7.60;;;4.75;;
8094;SDS011;4090;49.270;8.696;2022-09-04T07:03:10;6.55;;;4.45;;
8094;SDS011;4090;49.270;8.696;2022-09-04T07:06:03;7.68;;;4.95;;
8094;SDS011;4090;49.270;8.696;2022-09-04T07:08:55;5.45;;;4.45;;
8094;SDS011;4090;49.270;8.696;2022-09-04T07:12:00;5.03;;;4.45;;
8094;SDS011;4090;49.270;8.696;2022-09-04T07:18:26;4.43;;;3.92;;
8094;SDS011;4090;49.270;8.696;2022-09-04T07:21:24;6.88;;;5.15;;
8094;SDS011;4090;49.270;8.696;2022-09-04T07:24:12;6.55;;;5.18;;
8094;SDS011;4090;49.270;8.696;2022-09-04T07:27:16;7.18;;;5.63;;
8094;SDS011;4090;49.270;8.696;2022-09-04T07:30:15;6.25;;;4.85;;
8094;SDS011;4090;49.270;8.696;2022-09-04T07:33:00;8.75;;;5.65;;
8094;SDS011;4090;49.270;8.696;2022-09-04T07:35:49;7.50;;;4.90;;
8094;SDS011;4090;49.270;8.696;2022-09-04T07:38:39;9.50;;;6.18;;
8094;SDS011;4090;49.270;8.696;2022-09-04T07:41:28;8.77;;;5.90;;
8094;SDS011;4090;49.270;8.696;2022-09-04T07:44:20;9.25;;;6.25;;
8094;SDS011;4090;49.270;8.696;2022-09-04T07:47:09;7.88;;;5.30;;
8094;SDS011;4090;49.270;8.696;2022-09-04T07:49:59;7.68;;;6.03;;
8094;SDS011;4090;49.270;8.696;2022-09-04T07:52:53;9.43;;;6.00;;
8094;SDS011;4090;49.270;8.696;2022-09-04T07:55:47;9.95;;;5.90;;
8094;SDS011;4090;49.270;8.696;2022-09-04T07:58:42;8.95;;;5.93;;
8094;SDS011;4090;49.270;8.696;2022-09-04T08:02:04;7.70;;;5.93;;
8094;SDS011;4090;49.270;8.696;2022-09-04T08:05:10;6.53;;;5.10;;
8094;SDS011;4090;49.270;8.696;2022-09-04T08:11:28;9.27;;;5.80;;
8094;SDS011;4090;49.270;8.696;2022-09-04T08:14:25;7.45;;;5.60;;
8094;SDS011;4090;49.270;8.696;2022-09-04T08:17:39;8.48;;;5.47;;
8094;SDS011;4090;49.270;8.696;2022-09-04T08:20:39;9.35;;;5.55;;
8094;SDS011;4090;49.270;8.696;2022-09-04T08:23:29;11.52;;;6.22;;
8094;SDS011;4090;49.270;8.696;2022-09-04T08:26:25;10.32;;;5.72;;
8094;SDS011;4090;49.270;8.696;2022-09-04T08:29:20;8.98;;;5.70;;
8094;SDS011;4090;49.270;8.696;2022-09-04T08:32:16;8.07;;;5.40;;
8094;SDS011;4090;49.270;8.696;2022-09-04T08:35:16;7.93;;;5.80;;
8094;SDS011;4090;49.270;8.696;2022-09-04T08:38:08;6.40;;;4.70;;
8094;SDS011;4090;49.270;8.696;2022-09-04T08:44:42;8.05;;;5.55;;
8094;SDS011;4090;49.270;8.696;2022-09-04T08:47:53;7.05;;;5.03;;
8094;SDS011;4090;49.270;8.696;2022-09-04T08:51:09;7.13;;;4.57;;
8094;SDS011;4090;49.270;8.696;2022-09-04T08:54:28;9.60;;;5.72;;
8094;SDS011;4090;49.270;8.696;2022-09-04T09:00:55;5.90;;;4.65;;
8094;SDS011;4090;49.270;8.696;2022-09-04T09:04:14;5.40;;;4.30;;
8094;SDS011;4090;49.270;8.696;2022-09-04T09:07:22;5.47;;;4.53;;
8094;SDS011;4090;49.270;8.696;2022-09-04T09:10:37;5.53;;;4.68;;
8094;SDS011;4090;49.270;8.696;2022-09-04T09:13:40;5.45;;;3.85;;
8094;SDS011;4090;49.270;8.696;2022-09-04T09:16:42;6.25;;;3.97;;
8094;SDS011;4090;49.270;8.696;2022-09-04T09:19:33;7.55;;;4.53;;
8094;SDS011;4090;49.270;8.696;2022-09-04T09:22:35;7.18;;;4.15;;
8094;SDS011;4090;49.270;8.696;2022-09-04T09:25:26;5.07;;;4.07;;
8094;SDS011;4090;49.270;8.696;2022-09-04T09:31:44;4.10;;;3.22;;
8094;SDS011;4090;49.270;8.696;2022-09-04T09:38:24;5.28;;;3.13;;
8094;SDS011;4090;49.270;8.696;2022-09-04T09:41:26;5.20;;;3.58;;
8094;SDS011;4090;49.270;8.696;2022-09-04T09:44:37;5.32;;;3.58;;
8094;SDS011;4090;49.270;8.696;2022-09-04T09:47:51;5.97;;;3.42;;
8094;SDS011;4090;49.270;8.696;2022-09-04T09:51:13;4.00;;;3.20;;
8094;SDS011;4090;49.270;8.696;2022-09-04T09:54:23;4.60;;;3.17;;
8094;SDS011;4090;49.270;8.696;2022-09-04T10:01:02;4.72;;;3.17;;
8094;SDS011;4090;49.270;8.696;2022-09-04T10:07:15;4.18;;;2.90;;
8094;SDS011;4090;49.270;8.696;2022-09-04T10:10:38;4.10;;;3.13;;
8094;SDS011;4090;49.270;8.696;2022-09-04T10:13:33;4.70;;;3.15;;
8094;SDS011;4090;49.270;8.696;2022-09-04T10:19:44;3.35;;;3.00;;
8094;SDS011;4090;49.270;8.696;2022-09-04T10:22:55;5.72;;;2.65;;
8094;SDS011;4090;49.270;8.696;2022-09-04T10:26:00;3.28;;;2.60;;
8094;SDS011;4090;49.270;8.696;2022-09-04T10:29:09;2.83;;;2.45;;
8094;SDS011;4090;49.270;8.696;2022-09-04T10:32:10;3.50;;;2.20;;
8094;SDS011;4090;49.270;8.696;2022-09-04T10:35:14;2.85;;;2.25;;
8094;SDS011;4090;49.270;8.696;2022-09-04T10:38:05;2.47;;;2.28;;
8094;SDS011;4090;49.270;8.696;2022-09-04T10:41:08;2.47;;;2.28;;
8094;SDS011;4090;49.270;8.696;2022-09-04T10:44:16;2.40;;;2.20;;
8094;SDS011;4090;49.270;8.696;2022-09-04T10:47:30;2.33;;;2.13;;
8094;SDS011;4090;49.270;8.696;2022-09-04T10:50:28;2.80;;;2.13;;
8094;SDS011;4090;49.270;8.696;2022-09-04T10:53:44;2.90;;;1.90;;
8094;SDS011;4090;49.270;8.696;2022-09-04T10:56:52;2.97;;;2.20;;
8094;SDS011;4090;49.270;8.696;2022-09-04T10:59:51;2.40;;;2.20;;
8094;SDS011;4090;49.270;8.696;2022-09-04T11:05:59;2.58;;;2.38;;
8094;SDS011;4090;49.270;8.696;2022-09-04T11:08:57;2.35;;;2.15;;
8094;SDS011;4090;49.270;8.696;2022-09-04T11:12:08;3.88;;;2.38;;
8094;SDS011;4090;49.270;8.696;2022-09-04T11:15:14;2.38;;;2.17;;
8094;SDS011;4090;49.270;8.696;2022-09-04T11:18:16;2.30;;;2.10;;
8094;SDS011;4090;49.270;8.696;2022-09-04T11:21:50;2.25;;;2.03;;
8094;SDS011;4090;49.270;8.696;2022-09-04T11:25:08;2.22;;;1.60;;
8094;SDS011;4090;49.270;8.696;2022-09-04T11:28:18;4.75;;;1.73;;
8094;SDS011;4090;49.270;8.696;2022-09-04T11:38:15;1.88;;;1.70;;
8094;SDS011;4090;49.270;8.696;2022-09-04T11:41:18;3.47;;;1.77;;
8094;SDS011;4090;49.270;8.696;2022-09-04T11:44:35;3.78;;;2.00;;
8094;SDS011;4090;49.270;8.696;2022-09-04T11:47:53;1.92;;;1.80;;
8094;SDS011;4090;49.270;8.696;2022-09-04T11:50:50;2.55;;;1.75;;
8094;SDS011;4090;49.270;8.696;2022-09-04T11:53:56;3.33;;;1.95;;
8094;SDS011;4090;49.270;8.696;2022-09-04T11:57:03;1.95;;;1.80;;
8094;SDS011;4090;49.270;8.696;2022-09-04T12:00:01;1.80;;;1.70;;
8094;SDS011;4090;49.270;8.696;2022-09-04T12:02:54;1.90;;;1.70;;
8094;SDS011;4090;49.270;8.696;2022-09-04T12:09:13;3.95;;;2.00;;
8094;SDS011;4090;49.270;8.696;2022-09-04T12:12:19;3.17;;;2.00;;
8094;SDS011;4090;49.270;8.696;2022-09-04T12:15:25;2.45;;;1.95;;
8094;SDS011;4090;49.270;8.696;2022-09-04T12:18:30;3.00;;;1.80;;
8094;SDS011;4090;49.270;8.696;2022-09-04T12:21:55;2.40;;;1.70;;
8094;SDS011;4090;49.270;8.696;2022-09-04T12:28:18;2.63;;;1.70;;
8094;SDS011;4090;49.270;8.696;2022-09-04T12:31:25;2.47;;;1.95;;
8094;SDS011;4090;49.270;8.696;2022-09-04T12:34:35;2.60;;;1.60;;
8094;SDS011;4090;49.270;8.696;2022-09-04T12:37:50;2.05;;;1.90;;
8094;SDS011;4090;49.270;8.696;2022-09-04T12:40:49;2.15;;;1.90;;
8094;SDS011;4090;49.270;8.696;2022-09-04T12:43:41;2.00;;;1.80;;
8094;SDS011;4090;49.270;8.696;2022-09-04T12:46:37;1.90;;;1.80;;
8094;SDS011;4090;49.270;8.696;2022-09-04T12:49:42;2.92;;;2.33;;
8094;SDS011;4090;49.270;8.696;2022-09-04T12:52:36;4.93;;;2.60;;
8094;SDS011;4090;49.270;8.696;2022-09-04T12:55:27;2.63;;;1.92;;
8094;SDS011;4090;49.270;8.696;2022-09-04T12:58:19;3.53;;;1.90;;
8094;SDS011;4090;49.270;8.696;2022-09-04T13:01:15;1.70;;;1.60;;
8094;SDS011;4090;49.270;8.696;2022-09-04T13:04:13;1.80;;;1.50;;
8094;SDS011;4090;49.270;8.696;2022-09-04T13:07:06;2.28;;;1.80;;
8094;SDS011;4090;49.270;8.696;2022-09-04T13:10:02;1.83;;;1.70;;
8094;SDS011;4090;49.270;8.696;2022-09-04T13:13:00;2.13;;;1.60;;
8094;SDS011;4090;49.270;8.696;2022-09-04T13:15:55;2.17;;;1.55;;
8094;SDS011;4090;49.270;8.696;2022-09-04T13:18:42;1.80;;;1.70;;
8094;SDS011;4090;49.270;8.696;2022-09-04T13:21:35;2.03;;;1.70;;
8094;SDS011;4090;49.270;8.696;2022-09-04T13:24:31;1.80;;;1.60;;
8094;SDS011;4090;49.270;8.696;2022-09-04T13:27:27;1.95;;;1.50;;
8094;SDS011;4090;49.270;8.696;2022-09-04T13:30:20;1.92;;;1.80;;
8094;SDS011;4090;49.270;8.696;2022-09-04T13:33:08;1.83;;;1.73;;
8094;SDS011;4090;49.270;8.696;2022-09-04T13:36:01;2.35;;;1.73;;
8094;SDS011;4090;49.270;8.696;2022-09-04T13:39:05;1.92;;;1.73;;
8094;SDS011;4090;49.270;8.696;2022-09-04T13:42:12;2.88;;;1.60;;
8094;SDS011;4090;49.270;8.696;2022-09-04T13:45:18;2.00;;;1.83;;
8094;SDS011;4090;49.270;8.696;2022-09-04T13:48:03;1.75;;;1.63;;
8094;SDS011;4090;49.270;8.696;2022-09-04T13:50:52;2.20;;;1.70;;
8094;SDS011;4090;49.270;8.696;2022-09-04T13:53:41;1.70;;;1.60;;
8094;SDS011;4090;49.270;8.696;2022-09-04T13:56:41;2.67;;;1.60;;
8094;SDS011;4090;49.270;8.696;2022-09-04T13:59:26;1.92;;;1.83;;
8094;SDS011;4090;49.270;8.696;2022-09-04T14:02:09;2.10;;;1.73;;
8094;SDS011;4090;49.270;8.696;2022-09-04T14:04:54;1.77;;;1.67;;
8094;SDS011;4090;49.270;8.696;2022-09-04T14:07:42;1.75;;;1.65;;
8094;SDS011;4090;49.270;8.696;2022-09-04T14:10:32;1.95;;;1.73;;
8094;SDS011;4090;49.270;8.696;2022-09-04T14:13:34;1.73;;;1.63;;
8094;SDS011;4090;49.270;8.696;2022-09-04T14:16:33;3.25;;;1.60;;
8094;SDS011;4090;49.270;8.696;2022-09-04T14:19:19;1.52;;;1.42;;
8094;SDS011;4090;49.270;8.696;2022-09-04T14:22:15;2.15;;;1.65;;
8094;SDS011;4090;49.270;8.696;2022-09-04T14:25:07;1.92;;;1.70;;
8094;SDS011;4090;49.270;8.696;2022-09-04T14:27:57;3.10;;;1.63;;
8094;SDS011;4090;49.270;8.696;2022-09-04T14:30:43;1.85;;;1.60;;
8094;SDS011;4090;49.270;8.696;2022-09-04T14:33:40;1.50;;;1.40;;
8094;SDS011;4090;49.270;8.696;2022-09-04T14:36:30;1.90;;;1.52;;
8094;SDS011;4090;49.270;8.696;2022-09-04T14:39:18;1.55;;;1.45;;
8094;SDS011;4090;49.270;8.696;2022-09-04T14:42:23;1.52;;;1.42;;
8094;SDS011;4090;49.270;8.696;2022-09-04T14:45:17;1.80;;;1.70;;
8094;SDS011;4090;49.270;8.696;2022-09-04T14:48:22;2.65;;;2.45;;
8094;SDS011;4090;49.270;8.696;2022-09-04T14:51:09;4.03;;;1.70;;
8094;SDS011;4090;49.270;8.696;2022-09-04T14:53:56;1.77;;;1.67;;
8094;SDS011;4090;49.270;8.696;2022-09-04T14:56:40;1.70;;;1.60;;
8094;SDS011;4090;49.270;8.696;2022-09-04T14:59:27;1.95;;;1.50;;
8094;SDS011;4090;49.270;8.696;2022-09-04T15:02:17;1.88;;;1.60;;
8094;SDS011;4090;49.270;8.696;2022-09-04T15:05:06;2.97;;;1.60;;
8094;SDS011;4090;49.270;8.696;2022-09-04T15:07:56;1.98;;;1.70;;
8094;SDS011;4090;49.270;8.696;2022-09-04T15:10:43;1.85;;;1.75;;
8094;SDS011;4090;49.270;8.696;2022-09-04T15:13:33;3.45;;;1.70;;
8094;SDS011;4090;49.270;8.696;2022-09-04T15:16:22;2.47;;;1.70;;
8094;SDS011;4090;49.270;8.696;2022-09-04T15:19:27;2.35;;;1.73;;
8094;SDS011;4090;49.270;8.696;2022-09-04T15:22:19;2.35;;;1.60;;
8094;SDS011;4090;49.270;8.696;2022-09-04T15:25:06;1.50;;;1.40;;
8094;SDS011;4090;49.270;8.696;2022-09-04T15:27:53;2.70;;;1.60;;
8094;SDS011;4090;49.270;8.696;2022-09-04T15:30:40;1.70;;;1.60;;
8094;SDS011;4090;49.270;8.696;2022-09-04T15:33:27;1.73;;;1.63;;
8094;SDS011;4090;49.270;8.696;2022-09-04T15:36:13;1.60;;;1.50;;
8094;SDS011;4090;49.270;8.696;2022-09-04T15:38:58;2.25;;;1.70;;
8094;SDS011;4090;49.270;8.696;2022-09-04T15:41:43;1.60;;;1.50;;
8094;SDS011;4090;49.270;8.696;2022-09-04T15:44:28;2.15;;;1.92;;
8094;SDS011;4090;49.270;8.696;2022-09-04T15:47:15;2.33;;;1.55;;
8094;SDS011;4090;49.270;8.696;2022-09-04T15:50:04;1.80;;;1.42;;
8094;SDS011;4090;49.270;8.696;2022-09-04T15:52:58;1.65;;;1.55;;
8094;SDS011;4090;49.270;8.696;2022-09-04T15:56:00;1.50;;;1.40;;
8094;SDS011;4090;49.270;8.696;2022-09-04T15:58:47;2.22;;;1.60;;
8094;SDS011;4090;49.270;8.696;2022-09-04T16:01:39;2.08;;;1.30;;
8094;SDS011;4090;49.270;8.696;2022-09-04T16:04:28;1.65;;;1.45;;
8094;SDS011;4090;49.270;8.696;2022-09-04T16:07:24;1.80;;;1.70;;
8094;SDS011;4090;49.270;8.696;2022-09-04T16:10:16;2.17;;;1.50;;
8094;SDS011;4090;49.270;8.696;2022-09-04T16:13:04;1.95;;;1.73;;
8094;SDS011;4090;49.270;8.696;2022-09-04T16:15:59;2.00;;;1.60;;
8094;SDS011;4090;49.270;8.696;2022-09-04T16:18:48;1.58;;;1.48;;
8094;SDS011;4090;49.270;8.696;2022-09-04T16:21:36;1.73;;;1.63;;
8094;SDS011;4090;49.270;8.696;2022-09-04T16:24:39;1.63;;;1.52;;
8094;SDS011;4090;49.270;8.696;2022-09-04T16:27:24;1.80;;;1.70;;
8094;SDS011;4090;49.270;8.696;2022-09-04T16:30:09;2.55;;;1.58;;
8094;SDS011;4090;49.270;8.696;2022-09-04T16:33:07;1.70;;;1.60;;
8094;SDS011;4090;49.270;8.696;2022-09-04T16:36:02;1.70;;;1.60;;
8094;SDS011;4090;49.270;8.696;2022-09-04T16:38:48;2.05;;;1.85;;
8094;SDS011;4090;49.270;8.696;2022-09-04T16:41:38;1.60;;;1.50;;
8094;SDS011;4090;49.270;8.696;2022-09-04T16:44:26;1.80;;;1.70;;
8094;SDS011;4090;49.270;8.696;2022-09-04T16:47:13;1.77;;;1.67;;
8094;SDS011;4090;49.270;8.696;2022-09-04T16:50:06;1.65;;;1.55;;
8094;SDS011;4090;49.270;8.696;2022-09-04T16:52:59;1.80;;;1.70;;
8094;SDS011;4090;49.270;8.696;2022-09-04T16:55:48;1.60;;;1.50;;
8094;SDS011;4090;49.270;8.696;2022-09-04T16:58:41;1.60;;;1.50;;
8094;SDS011;4090;49.270;8.696;2022-09-04T17:01:37;2.30;;;2.10;;
8094;SDS011;4090;49.270;8.696;2022-09-04T17:04:26;1.98;;;1.85;;
8094;SDS011;4090;49.270;8.696;2022-09-04T17:07:18;1.88;;;1.77;;
8094;SDS011;4090;49.270;8.696;2022-09-04T17:10:06;1.70;;;1.60;;
8094;SDS011;4090;49.270;8.696;2022-09-04T17:12:53;3.05;;;1.70;;
8094;SDS011;4090;49.270;8.696;2022-09-04T17:15:41;1.85;;;1.70;;
8094;SDS011;4090;49.270;8.696;2022-09-04T17:18:28;3.53;;;1.70;;
8094;SDS011;4090;49.270;8.696;2022-09-04T17:21:13;1.80;;;1.70;;
8094;SDS011;4090;49.270;8.696;2022-09-04T17:24:15;2.05;;;1.50;;
8094;SDS011;4090;49.270;8.696;2022-09-04T17:27:02;1.80;;;1.70;;
8094;SDS011;4090;49.270;8.696;2022-09-04T17:29:51;2.15;;;1.50;;
8094;SDS011;4090;49.270;8.696;2022-09-04T17:32:40;2.67;;;1.90;;
8094;SDS011;4090;49.270;8.696;2022-09-04T17:35:29;3.65;;;1.92;;
8094;SDS011;4090;49.270;8.696;2022-09-04T17:38:19;2.42;;;2.05;;
8094;SDS011;4090;49.270;8.696;2022-09-04T17:41:13;3.42;;;1.80;;
8094;SDS011;4090;49.270;8.696;2022-09-04T17:44:08;2.53;;;1.92;;
8094;SDS011;4090;49.270;8.696;2022-09-04T17:47:07;1.60;;;1.50;;
8094;SDS011;4090;49.270;8.696;2022-09-04T17:49:59;2.30;;;1.88;;
8094;SDS011;4090;49.270;8.696;2022-09-04T17:52:53;3.38;;;1.88;;
8094;SDS011;4090;49.270;8.696;2022-09-04T17:55:39;2.42;;;1.80;;
8094;SDS011;4090;49.270;8.696;2022-09-04T17:58:28;2.22;;;1.67;;
8094;SDS011;4090;49.270;8.696;2022-09-04T18:01:16;3.35;;;1.80;;
8094;SDS011;4090;49.270;8.696;2022-09-04T18:04:10;3.60;;;1.90;;
8094;SDS011;4090;49.270;8.696;2022-09-04T18:07:00;3.20;;;2.00;;
8094;SDS011;4090;49.270;8.696;2022-09-04T18:09:56;3.20;;;1.80;;
8094;SDS011;4090;49.270;8.696;2022-09-04T18:12:44;4.72;;;2.03;;
8094;SDS011;4090;49.270;8.696;2022-09-04T18:15:32;2.67;;;1.80;;
8094;SDS011;4090;49.270;8.696;2022-09-04T18:18:22;4.85;;;2.00;;
8094;SDS011;4090;49.270;8.696;2022-09-04T18:21:18;1.95;;;1.75;;
8094;SDS011;4090;49.270;8.696;2022-09-04T18:24:04;1.92;;;1.83;;
8094;SDS011;4090;49.270;8.696;2022-09-04T18:26:54;1.95;;;1.70;;
8094;SDS011;4090;49.270;8.696;2022-09-04T18:29:47;2.70;;;1.88;;
8094;SDS011;4090;49.270;8.696;2022-09-04T18:32:43;3.13;;;1.75;;
8094;SDS011;4090;49.270;8.696;2022-09-04T18:35:33;3.83;;;2.15;;
8094;SDS011;4090;49.270;8.696;2022-09-04T18:38:32;2.65;;;1.85;;
8094;SDS011;4090;49.270;8.696;2022-09-04T18:41:20;2.65;;;1.85;;
8094;SDS011;4090;49.270;8.696;2022-09-04T18:44:10;3.03;;;2.00;;
8094;SDS011;4090;49.270;8.696;2022-09-04T18:49:59;1.80;;;1.60;;
8094;SDS011;4090;49.270;8.696;2022-09-04T18:52:45;3.35;;;2.00;;
8094;SDS011;4090;49.270;8.696;2022-09-04T18:55:35;1.73;;;1.50;;
8094;SDS011;4090;49.270;8.696;2022-09-04T18:58:38;3.20;;;2.20;;
8094;SDS011;4090;49.270;8.696;2022-09-04T19:01:30;3.28;;;1.90;;
8094;SDS011;4090;49.270;8.696;2022-09-04T19:04:27;6.20;;;5.57;;
8094;SDS011;4090;49.270;8.696;2022-09-04T19:07:21;9.27;;;7.95;;
8094;SDS011;4090;49.270;8.696;2022-09-04T19:10:18;6.55;;;3.03;;
8094;SDS011;4090;49.270;8.696;2022-09-04T19:13:05;2.50;;;2.10;;
8094;SDS011;4090;49.270;8.696;2022-09-04T19:15:55;2.40;;;2.17;;
8094;SDS011;4090;49.270;8.696;2022-09-04T19:18:44;2.97;;;1.83;;
8094;SDS011;4090;49.270;8.696;2022-09-04T19:21:32;2.65;;;2.08;;
8094;SDS011;4090;49.270;8.696;2022-09-04T19:24:22;2.75;;;2.08;;